Syracuse, Nebraska
Current Conditions -  °F | °C
As of 9:15 PM on Wednesday 22 Oct 2014 (Local Time) from KAFK Reporting Station
Moderate Rain Moderate Rain  
Wind Chill: 65°   Ceiling: 6000
Heat Index: 65°   Visibility: 10mi
Dew Point: 55°   Wind: 8mph
Humidity: 69%   Direction: 190°S
Pressure: 30.07"   Gusts: NA
Location:  40.66°N, 96.19°W
Report Text: KAFK 230215Z AUTO 19007KT 170V260 10SM RA SCT035 BKN060 OVC090 18/13 A3007 RMK AO2 T01840127
Loading
Personal Weather Stations






























Interactive Weather Map
Tropical Storm Tracking
New forecast layout! Learn more

10-Day Weather Forecast

Advertisements
Track Severe Weather on mobile